createdAt,value
2017-11-05T00:02:01.216Z,43.90
2017-11-05T00:04:29.053Z,40.13
2017-11-05T00:06:56.918Z,47.53
2017-11-05T00:09:24.779Z,38.70
2017-11-05T00:11:52.654Z,41.37
2017-11-05T00:14:20.514Z,40.97
2017-11-05T00:16:48.365Z,41.27
2017-11-05T00:19:16.185Z,44.90
2017-11-05T00:21:44.009Z,41.30
2017-11-05T00:24:11.848Z,45.80
2017-11-05T00:26:39.730Z,44.63
2017-11-05T00:29:07.569Z,45.30
2017-11-05T00:31:35.397Z,48.37
2017-11-05T00:34:03.245Z,57.87
2017-11-05T00:36:31.093Z,41.00
2017-11-05T00:38:58.913Z,37.27
2017-11-05T00:41:26.754Z,47.17
2017-11-05T00:43:54.581Z,46.40
2017-11-05T00:46:22.405Z,43.73
2017-11-05T00:48:50.218Z,43.53
2017-11-05T00:51:18.064Z,39.87
2017-11-05T00:53:45.897Z,44.37
2017-11-05T00:56:13.709Z,49.33
2017-11-05T00:58:41.553Z,45.37
2017-11-05T01:01:09.357Z,43.67
2017-11-05T01:03:37.208Z,45.13
2017-11-05T01:06:05.016Z,45.77
2017-11-05T01:08:32.854Z,45.27
2017-11-05T01:11:00.701Z,45.60
2017-11-05T01:13:28.541Z,51.80
2017-11-05T01:15:56.367Z,58.10
2017-11-05T01:18:24.177Z,53.50
2017-11-05T01:20:52.037Z,57.60
2017-11-05T01:23:19.878Z,54.87
2017-11-05T01:25:47.708Z,47.23
2017-11-05T01:28:15.531Z,66.07
2017-11-05T01:30:43.341Z,65.70
2017-11-05T01:33:11.177Z,63.47
2017-11-05T01:35:39.038Z,68.10
2017-11-05T01:38:06.908Z,68.50
2017-11-05T01:40:34.716Z,64.50
2017-11-05T01:43:02.578Z,59.00
2017-11-05T01:45:30.404Z,58.90
2017-11-05T01:47:58.224Z,57.60
2017-11-05T01:50:26.057Z,62.17
2017-11-05T01:52:53.901Z,46.77
2017-11-05T01:55:21.771Z,63.07
2017-11-05T01:57:49.616Z,62.73
2017-11-05T02:00:17.449Z,54.60
2017-11-05T02:02:45.272Z,60.90
2017-11-05T02:05:13.138Z,55.67
2017-11-05T02:07:40.966Z,37.47
2017-11-05T02:10:08.802Z,50.70
2017-11-05T02:12:36.653Z,50.97
2017-11-05T02:15:04.497Z,55.73
2017-11-05T02:17:32.349Z,53.03
2017-11-05T02:20:00.173Z,53.23
2017-11-05T02:22:27.981Z,48.93
2017-11-05T02:24:55.798Z,52.47
2017-11-05T02:27:23.626Z,52.83
2017-11-05T02:29:51.450Z,55.40
2017-11-05T02:32:19.296Z,51.67
2017-11-05T02:34:47.148Z,53.90
2017-11-05T02:37:14.986Z,53.00
2017-11-05T02:39:42.805Z,53.17
2017-11-05T02:42:10.613Z,58.50
2017-11-05T02:44:38.537Z,53.07
2017-11-05T02:47:06.358Z,54.03
2017-11-05T02:49:34.180Z,56.07
2017-11-05T02:52:02.005Z,51.80
2017-11-05T02:54:29.823Z,50.70
2017-11-05T02:56:57.672Z,47.87
2017-11-05T02:59:25.517Z,56.20
2017-11-05T03:01:53.348Z,47.73
2017-11-05T03:04:21.161Z,56.30
2017-11-05T03:06:48.997Z,54.53
2017-11-05T03:09:16.842Z,53.63
2017-11-05T03:11:44.672Z,44.17
2017-11-05T03:14:12.509Z,41.93
2017-11-05T03:16:40.334Z,35.67
2017-11-05T03:19:08.142Z,37.93
2017-11-05T03:21:36.005Z,40.27
2017-11-05T03:24:03.824Z,38.93
2017-11-05T03:26:31.664Z,43.93
2017-11-05T03:28:59.505Z,31.87
2017-11-05T03:31:27.353Z,41.03
2017-11-05T03:33:55.174Z,32.40
2017-11-05T03:36:23.032Z,34.70
2017-11-05T03:38:50.859Z,39.37
2017-11-05T03:41:18.686Z,39.43
2017-11-05T03:43:46.491Z,38.80
2017-11-05T03:46:14.317Z,35.03
2017-11-05T03:48:42.189Z,29.83
2017-11-05T03:51:10.009Z,36.53
2017-11-05T03:53:37.850Z,22.60
2017-11-05T03:56:05.668Z,26.33
2017-11-05T03:58:33.498Z,24.83
2017-11-05T04:01:01.331Z,22.93
2017-11-05T04:03:29.149Z,22.00
2017-11-05T04:05:56.960Z,22.07
2017-11-05T04:08:24.791Z,17.27
2017-11-05T04:10:52.611Z,15.33
2017-11-05T04:13:20.447Z,18.70
2017-11-05T04:15:49.085Z,21.27
2017-11-05T04:18:16.917Z,17.80
2017-11-05T04:20:44.737Z,11.90
2017-11-05T04:23:12.563Z,12.87
2017-11-05T04:25:40.388Z,23.30
2017-11-05T04:28:08.228Z,22.20
2017-11-05T04:30:36.045Z,21.80
2017-11-05T04:33:03.861Z,16.20
2017-11-05T04:35:31.696Z,22.93
2017-11-05T04:37:59.522Z,15.87
2017-11-05T04:40:27.357Z,16.40
2017-11-05T04:42:55.177Z,26.60
2017-11-05T04:45:23.035Z,26.90
2017-11-05T04:47:50.858Z,22.33
2017-11-05T04:50:18.702Z,22.83
2017-11-05T04:52:46.532Z,18.63
2017-11-05T04:55:14.363Z,26.47
2017-11-05T04:57:42.191Z,19.73
2017-11-05T05:00:10.033Z,25.43
2017-11-05T05:02:37.857Z,29.00
2017-11-05T05:05:05.696Z,25.43
2017-11-05T05:07:33.492Z,17.67
2017-11-05T05:10:01.313Z,26.00
2017-11-05T05:12:29.116Z,19.93
2017-11-05T05:14:56.941Z,27.13
2017-11-05T05:17:24.757Z,19.60
2017-11-05T05:19:52.602Z,23.67
2017-11-05T05:22:20.423Z,20.00
2017-11-05T05:24:48.233Z,26.07
2017-11-05T05:27:16.059Z,21.73
2017-11-05T05:29:43.881Z,18.13
2017-11-05T05:32:11.692Z,20.50
2017-11-05T05:34:39.506Z,21.50
2017-11-05T05:37:07.363Z,19.70
2017-11-05T05:39:35.191Z,32.77
2017-11-05T05:42:03.009Z,22.90
2017-11-05T05:44:30.816Z,21.23
2017-11-05T05:46:58.641Z,21.70
2017-11-05T05:49:26.476Z,20.47
2017-11-05T05:51:55.260Z,25.50
2017-11-05T05:54:23.075Z,23.00
2017-11-05T05:56:50.913Z,22.57
2017-11-05T05:59:18.737Z,25.83
2017-11-05T06:01:46.556Z,29.83
2017-11-05T06:04:14.378Z,15.10
2017-11-05T06:06:42.209Z,18.20
2017-11-05T06:09:10.026Z,24.50
2017-11-05T06:11:37.840Z,21.17
2017-11-05T06:14:05.645Z,20.00
2017-11-05T06:16:33.501Z,27.63
2017-11-05T06:19:01.325Z,29.90
2017-11-05T06:21:29.157Z,21.53
2017-11-05T06:23:56.968Z,21.53
2017-11-05T06:26:24.781Z,21.33
2017-11-05T06:28:52.601Z,23.40
2017-11-05T06:31:20.420Z,23.27
2017-11-05T06:33:48.235Z,22.47
2017-11-05T06:36:16.057Z,24.27
2017-11-05T06:38:43.868Z,21.43
2017-11-05T06:41:11.707Z,22.03
2017-11-05T06:43:39.542Z,41.33
2017-11-05T06:46:07.399Z,30.40
2017-11-05T06:48:35.233Z,23.27
2017-11-05T06:51:03.057Z,29.33
2017-11-05T06:53:30.900Z,22.83
2017-11-05T06:55:58.713Z,22.83
2017-11-05T06:58:26.573Z,31.13
2017-11-05T07:00:54.397Z,22.37
2017-11-05T07:03:22.255Z,28.13
2017-11-05T07:05:50.089Z,27.10
2017-11-05T07:08:17.919Z,23.43
2017-11-05T07:10:45.745Z,28.90
2017-11-05T07:13:13.574Z,29.70
2017-11-05T07:15:41.413Z,31.83
2017-11-05T07:18:09.239Z,20.50
2017-11-05T07:20:37.074Z,32.23
2017-11-05T07:23:04.891Z,29.77
2017-11-05T07:25:32.735Z,30.90
2017-11-05T07:28:00.561Z,24.27
2017-11-05T07:30:28.425Z,34.93
2017-11-05T07:32:56.265Z,26.53
2017-11-05T07:35:24.105Z,28.03
2017-11-05T07:37:51.945Z,37.03
2017-11-05T07:40:19.785Z,38.20
2017-11-05T07:42:47.638Z,36.03
2017-11-05T07:45:15.461Z,40.10
2017-11-05T07:47:43.281Z,36.90
2017-11-05T07:50:11.105Z,31.83
2017-11-05T07:52:39.014Z,32.23
2017-11-05T07:55:06.879Z,34.90
2017-11-05T07:57:34.712Z,38.00
2017-11-05T08:00:02.525Z,33.27
2017-11-05T08:02:30.346Z,32.13
2017-11-05T08:04:58.197Z,39.10
2017-11-05T08:07:26.025Z,26.57
2017-11-05T08:09:53.833Z,30.50
2017-11-05T08:12:21.675Z,25.20
2017-11-05T08:14:49.502Z,43.37
2017-11-05T08:17:17.336Z,36.53
2017-11-05T08:19:45.194Z,41.10
2017-11-05T08:22:13.012Z,40.20
2017-11-05T08:24:40.840Z,31.80
2017-11-05T08:27:08.735Z,27.10
2017-11-05T08:29:36.568Z,26.07
2017-11-05T08:32:04.381Z,27.00
2017-11-05T08:34:32.196Z,28.60
2017-11-05T08:37:00.041Z,29.83
2017-11-05T08:39:27.968Z,32.93
2017-11-05T08:41:55.809Z,34.80
2017-11-05T08:44:23.644Z,39.20
2017-11-05T08:46:51.515Z,38.07
2017-11-05T08:49:19.356Z,41.63
2017-11-05T08:51:47.204Z,30.00
2017-11-05T08:54:15.061Z,41.20
2017-11-05T08:56:42.879Z,45.47
2017-11-05T08:59:10.708Z,36.43
2017-11-05T09:01:38.587Z,35.10
2017-11-05T09:04:06.414Z,29.60
2017-11-05T09:06:34.273Z,40.93
2017-11-05T09:09:02.188Z,39.03
2017-11-05T09:11:30.025Z,26.03
2017-11-05T09:13:59.562Z,35.40
2017-11-05T09:16:27.433Z,26.87
2017-11-05T09:18:55.281Z,22.07
2017-11-05T09:21:23.110Z,26.60
2017-11-05T09:24:08.236Z,36.13
2017-11-05T09:26:36.119Z,24.60
2017-11-05T09:29:04.864Z,20.90
2017-11-05T09:31:32.808Z,21.03
2017-11-05T09:34:00.890Z,25.30
2017-11-05T09:36:29.122Z,27.70
2017-11-05T09:41:31.700Z,33.23
2017-11-05T09:43:59.526Z,13.10
2017-11-05T09:46:27.349Z,21.77
2017-11-05T09:48:56.842Z,19.70
2017-11-05T09:51:24.974Z,18.27
2017-11-05T09:53:52.820Z,21.87
2017-11-05T09:56:20.649Z,22.60
2017-11-05T09:58:48.498Z,23.23
2017-11-05T10:01:16.333Z,15.67
2017-11-05T10:03:44.161Z,18.20
2017-11-05T10:06:12.009Z,19.03
2017-11-05T10:08:39.868Z,22.53
2017-11-05T10:11:07.714Z,19.90
2017-11-05T10:13:35.547Z,22.70
2017-11-05T10:16:03.372Z,19.10
2017-11-05T10:18:31.213Z,22.47
2017-11-05T10:20:59.268Z,24.03
2017-11-05T10:23:27.115Z,18.63
2017-11-05T10:25:54.964Z,20.00
2017-11-05T10:28:22.808Z,23.93
2017-11-05T10:30:50.633Z,18.30
2017-11-05T10:33:18.488Z,27.33
2017-11-05T10:35:46.349Z,27.27
2017-11-05T10:38:14.178Z,12.40
2017-11-05T10:40:42.039Z,23.47
2017-11-05T10:43:09.952Z,27.80
2017-11-05T10:45:37.825Z,13.67
2017-11-05T10:48:05.763Z,15.43
2017-11-05T10:50:33.605Z,19.60
2017-11-05T10:53:01.473Z,22.20
2017-11-05T10:55:29.305Z,24.70
2017-11-05T10:57:57.141Z,24.70
2017-11-05T11:00:24.948Z,13.53
2017-11-05T11:02:52.795Z,22.10
2017-11-05T11:05:20.696Z,20.80
2017-11-05T11:07:48.523Z,13.27
2017-11-05T11:10:16.357Z,24.47
2017-11-05T11:12:44.206Z,20.13
2017-11-05T11:15:12.040Z,27.50
2017-11-05T11:17:39.873Z,17.93
2017-11-05T11:20:07.731Z,23.90
2017-11-05T11:22:35.593Z,26.83
2017-11-05T11:25:03.449Z,22.93
2017-11-05T11:27:31.264Z,25.53
2017-11-05T11:29:59.104Z,22.00
2017-11-05T11:32:26.958Z,20.73
2017-11-05T11:34:54.826Z,17.97
2017-11-05T11:37:22.671Z,16.43
2017-11-05T11:39:50.535Z,25.43
2017-11-05T11:42:18.449Z,20.70
2017-11-05T11:44:46.308Z,13.67
2017-11-05T11:47:14.157Z,19.27
2017-11-05T11:49:42.026Z,11.57
2017-11-05T11:52:09.894Z,21.63
2017-11-05T11:54:37.720Z,13.60
2017-11-05T11:57:05.581Z,23.40
2017-11-05T11:59:33.481Z,13.80
2017-11-05T12:02:01.356Z,16.23
2017-11-05T12:04:29.220Z,18.83
2017-11-05T12:06:57.085Z,14.50
2017-11-05T12:09:24.965Z,23.67
2017-11-05T12:11:52.850Z,12.67
2017-11-05T12:14:20.755Z,12.97
2017-11-05T12:16:48.606Z,21.80
2017-11-05T12:19:16.480Z,23.10
2017-11-05T12:21:44.342Z,11.43
2017-11-05T12:24:12.221Z,19.27
2017-11-05T12:26:40.091Z,20.63
2017-11-05T12:29:07.941Z,9.50
2017-11-05T12:31:35.789Z,9.20
2017-11-05T12:34:03.707Z,12.30
2017-11-05T12:36:31.582Z,15.60
2017-11-05T12:38:59.495Z,14.30
2017-11-05T12:41:27.382Z,16.63
2017-11-05T12:43:55.232Z,18.37
2017-11-05T12:46:24.866Z,8.53
2017-11-05T12:48:54.436Z,8.00
2017-11-05T13:03:13.152Z,8.10
2017-11-05T13:11:41.814Z,10.07
2017-11-05T13:14:11.658Z,17.93
2017-11-05T13:22:40.728Z,12.50
2017-11-05T13:25:15.009Z,11.63
2017-11-05T13:27:43.081Z,9.23
2017-11-05T13:30:17.896Z,13.30
2017-11-05T13:35:47.528Z,21.87
2017-11-05T13:47:09.042Z,21.43
2017-11-05T13:49:38.210Z,13.23
2017-11-05T14:01:11.894Z,5.33
2017-11-05T14:06:34.871Z,6.53
2017-11-05T14:09:03.093Z,6.17
2017-11-05T14:11:31.311Z,9.83
2017-11-05T14:13:59.429Z,13.30
2017-11-05T14:28:11.854Z,11.97
2017-11-05T14:48:17.850Z,10.07
2017-11-05T14:59:46.576Z,12.77
2017-11-05T15:09:12.002Z,5.70
2017-11-05T15:14:43.447Z,13.47
2017-11-05T15:23:15.450Z,12.90
2017-11-05T16:48:39.919Z,16.90
2017-11-05T17:42:58.900Z,12.03
2017-11-05T21:36:20.450Z,14.73
2017-11-05T21:38:48.660Z,12.03
2017-11-05T21:41:16.881Z,15.93
2017-11-05T21:43:45.377Z,13.77
2017-11-05T21:46:13.624Z,11.70
2017-11-05T22:15:42.205Z,10.53
2017-11-05T23:30:42.337Z,17.95
2017-11-05T23:42:09.860Z,12.45
